Time;durP1;ratioP1;P1;durP2;ratioP2;P2;SDS_P1;SDS_P2;PMS_P1;PMS_P2;Temp;Humidity;BMP_temperature;BMP_pressure;BME280_temperature;BME280_humidity;BME280_pressure;Samples;Min_cycle;Max_cycle;Signal;HPM_P1;HPM_P2
2023/09/29 00:00:23;;;;;;;0.00;0.00;;;;;;;16.92;100.00;101342.28;5110691;28;20108;-43
2023/09/29 00:02:50;;;;;;;0.00;0.00;;;;;;;16.98;100.00;101357.78;5112335;28;20024;-45
2023/09/29 00:05:17;;;;;;;0.00;0.00;;;;;;;16.98;100.00;101346.91;5111565;28;20494;-44
2023/09/29 00:07:43;;;;;;;0.00;0.00;;;;;;;17.04;100.00;101351.47;5110730;28;20027;-47
2023/09/29 00:10:13;;;;;;;0.00;0.00;;;;;;;17.06;100.00;101343.94;5107095;28;20035;-45
2023/09/29 00:12:39;;;;;;;0.00;0.00;;;;;;;17.04;100.00;101345.22;5105790;27;20020;-45
2023/09/29 00:15:05;;;;;;;0.00;0.00;;;;;;;17.03;100.00;101343.53;5108427;28;20108;-46
2023/09/29 00:17:31;;;;;;;0.00;0.00;;;;;;;17.04;100.00;101343.31;5091082;28;20489;-43
2023/09/29 00:19:57;;;;;;;0.00;0.00;;;;;;;17.03;100.00;101340.78;5091004;28;20028;-47
2023/09/29 00:22:22;;;;;;;0.00;0.00;;;;;;;16.96;100.00;101345.44;5090668;28;20038;-44
2023/09/29 00:24:48;;;;;;;0.00;0.00;;;;;;;16.95;100.00;101338.31;5090845;28;20069;-45
2023/09/29 00:27:13;;;;;;;0.00;0.00;;;;;;;16.96;100.00;101329.94;5091909;28;20050;-43
2023/09/29 00:29:39;;;;;;;0.00;0.00;;;;;;;17.02;100.00;101333.69;5094353;28;20042;-43
2023/09/29 00:32:05;;;;;;;0.00;0.00;;;;;;;17.08;100.00;101328.22;5109273;28;20055;-44
2023/09/29 00:34:31;;;;;;;0.00;0.00;;;;;;;17.03;100.00;101336.19;5113615;28;20469;-45
2023/09/29 00:36:56;;;;;;;0.00;0.00;;;;;;;16.97;100.00;101326.16;5111286;28;20077;-45
2023/09/29 00:39:21;;;;;;;0.00;0.00;;;;;;;16.97;100.00;101338.94;5111404;28;20043;-45
2023/09/29 00:41:49;;;;;;;0.00;0.00;;;;;;;16.95;100.00;101341.03;5097280;28;20119;-43
2023/09/29 00:44:14;;;;;;;0.00;0.00;;;;;;;16.99;100.00;101336.84;5090176;28;20077;-45
2023/09/29 00:46:40;;;;;;;0.00;0.00;;;;;;;16.87;100.00;101329.31;5090489;28;20308;-44
2023/09/29 00:49:05;;;;;;;0.00;0.00;;;;;;;16.89;100.00;101324.50;5089365;28;20020;-43
2023/09/29 00:51:32;;;;;;;0.00;0.00;;;;;;;16.92;100.00;101325.16;5094398;28;20070;-45
2023/09/29 00:53:57;;;;;;;0.00;0.00;;;;;;;16.91;100.00;101318.88;5093509;28;20027;-45
2023/09/29 00:56:23;;;;;;;0.00;0.00;;;;;;;16.87;100.00;101318.44;5105526;28;20055;-46
2023/09/29 00:58:48;;;;;;;0.00;0.00;;;;;;;16.92;100.00;101319.72;5089005;28;20051;-46
2023/09/29 01:01:14;;;;;;;0.00;0.00;;;;;;;16.98;100.00;101318.84;5098505;28;20124;-45
2023/09/29 01:03:39;;;;;;;0.00;0.00;;;;;;;17.00;100.00;101311.31;5107659;28;20024;-43
2023/09/29 01:06:08;;;;;;;0.00;0.00;;;;;;;16.96;100.00;101310.09;5108311;28;20027;-43
2023/09/29 01:08:35;;;;;;;0.00;0.00;;;;;;;16.93;100.00;101307.78;5107626;28;20039;-44
2023/09/29 01:11:03;;;;;;;0.00;0.00;;;;;;;16.87;100.00;101313.00;5094530;28;20020;-45
2023/09/29 01:13:28;;;;;;;;;;;;;;;16.84;100.00;101307.16;5095900;28;20085;-43
2023/09/29 01:15:54;;;;;;;0.00;0.00;;;;;;;16.82;100.00;101307.38;5098506;28;20379;-46
2023/09/29 01:18:20;;;;;;;0.00;0.00;;;;;;;16.80;100.00;101300.50;5094562;28;20321;-44
2023/09/29 01:20:45;;;;;;;0.00;0.00;;;;;;;16.84;100.00;101285.41;5105007;28;20023;-45
2023/09/29 01:23:11;;;;;;;0.00;0.00;;;;;;;16.88;100.00;101282.06;5107698;28;20126;-44
2023/09/29 01:25:37;;;;;;;0.00;0.00;;;;;;;16.96;100.00;101270.13;5101360;28;20059;-44
2023/09/29 01:28:13;;;;;;;0.00;0.00;;;;;;;17.02;100.00;101271.16;5105144;28;20023;-44
2023/09/29 01:30:42;;;;;;;0.00;0.00;;;;;;;16.99;100.00;101269.69;5113423;28;20145;-45
2023/09/29 01:33:08;;;;;;;0.00;0.00;;;;;;;17.02;100.00;101271.16;5111984;28;20051;-43
2023/09/29 01:35:33;;;;;;;0.00;0.00;;;;;;;16.98;100.00;101281.63;5096323;28;20478;-46
2023/09/29 01:37:59;;;;;;;0.00;0.00;;;;;;;17.05;100.00;101273.44;5094325;28;20027;-45
2023/09/29 01:40:24;;;;;;;0.00;0.00;;;;;;;17.07;100.00;101276.78;5094105;28;20107;-44
2023/09/29 01:42:51;;;;;;;0.00;0.00;;;;;;;17.01;100.00;101288.50;5112043;28;20023;-46
2023/09/29 01:45:17;;;;;;;0.00;0.00;;;;;;;16.96;100.00;101300.03;5113207;28;20058;-48
2023/09/29 01:47:45;;;;;;;0.00;0.00;;;;;;;17.04;100.00;101285.38;5113536;28;20023;-44
2023/09/29 01:50:16;;;;;;;0.00;0.00;;;;;;;17.00;100.00;101268.63;5100535;28;20024;-47
2023/09/29 01:52:43;;;;;;;0.00;0.00;;;;;;;16.88;100.00;101275.81;5093986;28;20027;-45
2023/09/29 01:55:10;;;;;;;0.00;0.00;;;;;;;16.73;100.00;101280.63;5094073;28;20020;-45
2023/09/29 01:57:35;;;;;;;0.00;0.00;;;;;;;16.58;100.00;101280.84;5095113;28;20028;-47
2023/09/29 02:00:01;;;;;;;0.00;0.00;;;;;;;16.48;100.00;101283.13;5093370;28;20062;-47
2023/09/29 02:02:26;;;;;;;0.00;0.00;;;;;;;16.43;100.00;101286.50;5095129;28;20052;-45
2023/09/29 02:04:55;;;;;;;0.00;0.00;;;;;;;16.41;100.00;101283.16;5111530;28;20461;-46
2023/09/29 02:07:20;;;;;;;0.00;0.00;;;;;;;16.40;100.00;101281.47;5113101;28;20381;-47
2023/09/29 02:09:46;;;;;;;0.00;0.00;;;;;;;16.44;100.00;101266.44;5094770;27;20043;-43
2023/09/29 02:12:13;;;;;;;0.00;0.00;;;;;;;16.50;100.00;101264.75;5105520;28;20055;-45
2023/09/29 02:14:38;;;;;;;0.00;0.00;;;;;;;16.49;100.00;101260.38;5098513;28;20063;-49
2023/09/29 02:17:05;;;;;;;0.00;0.00;;;;;;;16.56;100.00;101258.47;5113111;28;20358;-48
2023/09/29 02:19:36;;;;;;;0.00;0.00;;;;;;;16.59;100.00;101249.91;5095057;28;20362;-47
2023/09/29 02:22:08;;;;;;;0.00;0.00;;;;;;;16.68;100.00;101251.34;5110542;28;20105;-46
2023/09/29 02:24:33;;;;;;;0.00;0.00;;;;;;;16.72;100.00;101249.88;5092602;28;20036;-45
2023/09/29 02:26:59;;;;;;;0.00;0.00;;;;;;;16.73;100.00;101251.53;5095360;28;20031;-44
2023/09/29 02:29:27;;;;;;;0.00;0.00;;;;;;;16.72;100.00;101241.72;5094644;27;20058;-45
2023/09/29 02:31:55;;;;;;;0.00;0.00;;;;;;;16.81;100.00;101254.06;5102084;28;20023;-45
2023/09/29 02:34:20;;;;;;;0.00;0.00;;;;;;;16.83;100.00;101235.66;5092817;28;20513;-45
2023/09/29 02:36:46;;;;;;;0.00;0.00;;;;;;;16.84;100.00;101229.16;5092820;28;20063;-46
2023/09/29 02:39:11;;;;;;;0.00;0.00;;;;;;;16.89;100.00;101223.91;5098590;28;20470;-47
2023/09/29 02:41:38;;;;;;;0.00;0.00;;;;;;;16.88;100.00;101221.44;5106161;27;20486;-48
2023/09/29 02:44:04;;;;;;;0.00;0.00;;;;;;;16.93;100.00;101223.47;5093006;28;20024;-45
2023/09/29 02:46:29;;;;;;;0.00;0.00;;;;;;;16.98;100.00;101210.09;5092591;28;20359;-44
2023/09/29 02:48:55;;;;;;;0.00;0.00;;;;;;;16.99;100.00;101203.63;5102124;28;20047;-45
2023/09/29 02:51:20;;;;;;;0.00;0.00;;;;;;;17.04;100.00;101209.25;5108457;28;20070;-46
2023/09/29 02:53:50;;;;;;;0.00;0.00;;;;;;;17.02;100.00;101219.50;5092475;28;20016;-43
2023/09/29 02:56:17;;;;;;;0.00;0.00;;;;;;;17.08;100.00;101211.28;5091125;28;20504;-44
2023/09/29 02:58:43;;;;;;;0.00;0.00;;;;;;;17.09;100.00;101199.38;5093649;28;20028;-44
2023/09/29 03:01:12;;;;;;;0.00;0.00;;;;;;;17.08;100.00;101199.59;5094116;28;20052;-45
2023/09/29 03:03:43;;;;;;;0.00;0.00;;;;;;;17.03;100.00;101202.13;5112594;28;20039;-44
2023/09/29 03:06:10;;;;;;;0.00;0.00;;;;;;;17.03;100.00;101197.50;5101715;28;20394;-45
2023/09/29 03:08:36;;;;;;;0.00;0.00;;;;;;;17.06;100.00;101204.41;5092186;28;20061;-46
2023/09/29 03:11:09;;;;;;;0.00;0.00;;;;;;;17.10;100.00;101192.06;5098593;28;20481;-45
2023/09/29 03:13:43;;;;;;;0.00;0.00;;;;;;;17.14;100.00;101196.03;5091680;28;20052;-45
2023/09/29 03:16:08;;;;;;;0.00;0.00;;;;;;;17.14;100.00;101189.72;5108004;27;20311;-48
2023/09/29 03:18:40;;;;;;;0.00;0.00;;;;;;;17.08;100.00;101189.53;5111627;28;20894;-45
2023/09/29 03:21:07;;;;;;;0.00;0.00;;;;;;;17.09;100.00;101184.97;5111872;28;20024;-46
2023/09/29 03:23:36;;;;;;;0.00;0.00;;;;;;;17.08;100.00;101181.38;5092279;28;20270;-44
2023/09/29 03:26:02;;;;;;;0.00;0.00;;;;;;;17.05;100.00;101184.53;5090923;28;20020;-48
2023/09/29 03:28:27;;;;;;;0.00;0.00;;;;;;;17.02;100.00;101178.72;5096895;28;20488;-48
2023/09/29 03:30:53;;;;;;;0.00;0.00;;;;;;;17.11;100.00;101171.94;5101102;28;20019;-45
2023/09/29 03:33:18;;;;;;;0.00;0.00;;;;;;;17.11;100.00;101166.50;5092379;28;20537;-43
2023/09/29 03:35:45;;;;;;;0.00;0.00;;;;;;;17.18;100.00;101166.50;5095481;28;20447;-44
2023/09/29 03:38:11;;;;;;;0.00;0.00;;;;;;;17.19;100.00;101158.09;5095984;28;20123;-43
2023/09/29 03:40:36;;;;;;;0.00;0.00;;;;;;;17.13;100.00;101155.44;5100717;28;20365;-48
2023/09/29 03:43:03;;;;;;;0.00;0.00;;;;;;;17.15;100.00;101153.34;5101582;28;20101;-46
2023/09/29 03:45:28;;;;;;;0.00;0.00;;;;;;;17.19;100.00;101152.66;5091105;28;20073;-47
2023/09/29 03:47:53;;;;;;;0.00;0.00;;;;;;;17.20;100.00;101154.34;5100472;28;20435;-46
2023/09/29 03:50:19;;;;;;;0.00;0.00;;;;;;;17.18;100.00;101151.00;5110855;28;20020;-46
2023/09/29 03:52:47;;;;;;;0.00;0.00;;;;;;;17.18;100.00;101144.72;5098502;28;20039;-45
2023/09/29 03:55:14;;;;;;;0.00;0.00;;;;;;;17.15;100.00;101156.88;5091117;28;20082;-47
2023/09/29 03:57:44;;;;;;;0.00;0.00;;;;;;;17.15;100.00;101158.78;5097655;28;20378;-45
2023/09/29 04:00:13;;;;;;;0.00;0.00;;;;;;;17.23;100.00;101153.91;5090973;28;20059;-45
2023/09/29 04:02:40;;;;;;;0.00;0.00;;;;;;;17.17;100.00;101153.94;5108020;28;20047;-46
2023/09/29 04:05:05;;;;;;;0.00;0.00;;;;;;;17.13;100.00;101158.97;5109239;28;20035;-44
2023/09/29 04:07:31;;;;;;;0.00;0.00;;;;;;;17.13;100.00;101161.69;5102573;28;20024;-47
2023/09/29 04:09:56;;;;;;;0.00;0.00;;;;;;;17.15;100.00;101159.59;5089119;28;20463;-43
2023/09/29 04:12:22;;;;;;;0.00;0.00;;;;;;;17.13;100.00;101161.69;5088597;28;20128;-45
2023/09/29 04:14:47;;;;;;;0.00;0.00;;;;;;;17.19;100.00;101160.81;5103781;28;20026;-45
2023/09/29 04:17:13;;;;;;;0.00;0.00;;;;;;;17.26;100.00;101158.06;5105923;28;20027;-45
2023/09/29 04:19:38;;;;;;;0.00;0.00;;;;;;;17.29;100.00;101161.19;5108989;28;20501;-47
2023/09/29 04:22:04;;;;;;;0.00;0.00;;;;;;;17.39;100.00;101151.72;5109369;28;20489;-45
2023/09/29 04:24:29;;;;;;;0.00;0.00;;;;;;;17.43;100.00;101148.34;5108928;28;20041;-47
2023/09/29 04:26:55;;;;;;;0.00;0.00;;;;;;;17.49;100.00;101150.19;5108616;28;20423;-48
2023/09/29 04:29:20;;;;;;;0.00;0.00;;;;;;;17.50;100.00;101145.56;5106498;28;20032;-45
2023/09/29 04:31:46;;;;;;;0.00;0.00;;;;;;;17.57;100.00;101149.06;5101155;28;20027;-43
2023/09/29 04:34:11;;;;;;;0.00;0.00;;;;;;;17.60;100.00;101135.03;5108966;28;20049;-45
2023/09/29 04:36:36;;;;;;;0.00;0.00;;;;;;;17.62;100.00;101151.97;5108986;28;20059;-44
2023/09/29 04:39:02;;;;;;;0.00;0.00;;;;;;;17.55;100.00;101134.84;5109132;28;20063;-45
2023/09/29 04:41:29;;;;;;;0.00;0.00;;;;;;;17.56;100.00;101139.22;5107292;28;20110;-46
2023/09/29 04:43:55;;;;;;;0.00;0.00;;;;;;;17.61;100.00;101139.41;5092142;28;20020;-47
2023/09/29 04:46:20;;;;;;;0.00;0.00;;;;;;;17.67;100.00;101134.97;5091045;28;20047;-44
2023/09/29 04:48:46;;;;;;;0.00;0.00;;;;;;;17.68;100.00;101139.34;5108289;28;20106;-42
2023/09/29 04:51:11;;;;;;;0.00;0.00;;;;;;;17.78;100.00;101135.09;5105545;28;20077;-42
2023/09/29 04:53:36;;;;;;;0.00;0.00;;;;;;;17.81;100.00;101133.00;5092864;28;20028;-44
2023/09/29 04:56:02;;;;;;;0.00;0.00;;;;;;;17.85;100.00;101136.94;5100184;28;20442;-43
2023/09/29 04:58:28;;;;;;;0.00;0.00;;;;;;;17.88;100.00;101133.78;5108742;28;20056;-43
2023/09/29 05:00:53;;;;;;;0.00;0.00;;;;;;;17.95;100.00;101135.38;5092030;28;20520;-44
2023/09/29 05:03:18;;;;;;;0.00;0.00;;;;;;;17.95;100.00;101135.38;5105928;28;20098;-46
2023/09/29 05:05:46;;;;;;;0.00;0.00;;;;;;;18.06;100.00;101136.56;5098264;27;20051;-46
2023/09/29 05:08:11;;;;;;;0.00;0.00;;;;;;;18.10;100.00;101137.75;5090617;28;20024;-44
2023/09/29 05:10:36;;;;;;;0.00;0.00;;;;;;;18.15;100.00;101146.09;5090312;28;20054;-44
2023/09/29 05:13:02;;;;;;;0.00;0.00;;;;;;;18.18;100.00;101145.63;5098542;28;20465;-47
2023/09/29 05:15:28;;;;;;;0.00;0.00;;;;;;;18.17;100.00;101140.44;5110954;28;20164;-44
2023/09/29 05:17:53;;;;;;;0.00;0.00;;;;;;;18.18;100.00;101142.09;5099476;28;20038;-45
2023/09/29 05:20:18;;;;;;;0.00;0.00;;;;;;;18.15;100.00;101140.63;5090602;28;20051;-45
2023/09/29 05:22:44;;;;;;;0.00;0.00;;;;;;;18.15;100.00;101140.63;5101299;28;20469;-44
2023/09/29 05:25:09;;;;;;;0.00;0.00;;;;;;;18.12;100.00;101141.09;5093447;28;20024;-44
2023/09/29 05:27:35;;;;;;;0.00;0.00;;;;;;;18.12;100.00;101145.72;5090748;28;20067;-44
2023/09/29 05:30:02;;;;;;;0.00;0.00;;;;;;;18.09;100.00;101147.00;5091633;28;20027;-45
2023/09/29 05:32:28;;;;;;;0.00;0.00;;;;;;;18.11;100.00;101139.41;5106965;28;20103;-47
2023/09/29 05:34:53;;;;;;;0.00;0.00;;;;;;;18.07;100.00;101143.66;5103101;28;20028;-45
2023/09/29 05:37:18;;;;;;;0.00;0.00;;;;;;;18.01;100.00;101154.59;5094732;28;20056;-47
2023/09/29 05:39:44;;;;;;;0.00;0.00;;;;;;;18.05;100.00;101151.22;5100657;28;20028;-47
2023/09/29 05:42:10;;;;;;;0.00;0.00;;;;;;;18.08;100.00;101145.31;5097541;28;20074;-45
2023/09/29 05:44:36;;;;;;;0.00;0.00;;;;;;;18.08;100.00;101148.03;5101994;28;20024;-49
2023/09/29 05:47:01;;;;;;;0.00;0.00;;;;;;;18.12;100.00;101148.44;5104991;28;20172;-45
2023/09/29 05:49:27;;;;;;;0.00;0.00;;;;;;;18.10;100.00;101148.66;5110548;28;20027;-45
2023/09/29 05:51:52;;;;;;;0.00;0.00;;;;;;;18.15;100.00;101145.25;5105987;28;20015;-46
2023/09/29 05:54:18;;;;;;;0.00;0.00;;;;;;;18.16;100.00;101152.34;5104663;27;20072;-44
2023/09/29 05:56:43;;;;;;;0.00;0.00;;;;;;;18.18;100.00;101151.06;5082528;27;20096;-48
2023/09/29 05:59:09;;;;;;;0.00;0.00;;;;;;;18.17;100.00;101154.03;5103151;28;20054;-44
2023/09/29 06:01:34;;;;;;;0.00;0.00;;;;;;;18.16;100.00;101150.47;5106415;27;20063;-45
2023/09/29 06:04:00;;;;;;;0.00;0.00;;;;;;;18.19;100.00;101151.91;5100775;28;20875;-45
2023/09/29 06:06:25;;;;;;;0.00;0.00;;;;;;;18.24;100.00;101148.50;5106455;28;20059;-44
2023/09/29 06:08:50;;;;;;;0.00;0.00;;;;;;;18.27;100.00;101159.78;5107717;28;20089;-44
2023/09/29 06:11:16;;;;;;;0.00;0.00;;;;;;;18.28;100.00;101156.03;5108032;27;20097;-46
2023/09/29 06:13:42;;;;;;;0.00;0.00;;;;;;;18.31;100.00;101163.75;5105055;28;20066;-44
2023/09/29 06:16:08;;;;;;;0.00;0.00;;;;;;;18.29;100.00;101165.03;5107169;28;20506;-45
2023/09/29 06:18:33;;;;;;;0.00;0.00;;;;;;;18.32;100.00;101168.13;5107868;27;20497;-43
2023/09/29 06:21:00;;;;;;;0.00;0.00;;;;;;;18.41;100.00;101168.69;5106338;28;20040;-45
2023/09/29 06:23:25;;;;;;;0.00;0.00;;;;;;;18.41;100.00;101177.69;5106028;28;20028;-49
2023/09/29 06:26:00;;;;;;;0.00;0.00;;;;;;;18.46;100.00;101174.28;5106139;28;20829;-49
2023/09/29 06:28:26;;;;;;;0.00;0.00;;;;;;;18.44;100.00;101176.41;5105321;28;20059;-43
2023/09/29 06:30:53;;;;;;;0.00;0.00;;;;;;;18.43;100.00;101175.56;5109930;27;20481;-46
2023/09/29 06:33:18;;;;;;;0.00;0.00;;;;;;;18.46;100.00;101174.28;5102070;28;20031;-45
2023/09/29 06:35:44;;;;;;;0.00;0.00;;;;;;;18.46;100.00;101179.72;5104714;28;20338;-44
2023/09/29 06:38:09;;;;;;;0.00;0.00;;;;;;;18.40;100.00;101183.34;5103813;28;20127;-44
2023/09/29 06:40:34;;;;;;;0.00;0.00;;;;;;;18.37;100.00;101189.25;5106257;27;20040;-46
2023/09/29 06:43:00;;;;;;;0.00;0.00;;;;;;;18.30;100.00;101191.19;5102914;27;20031;-44
2023/09/29 06:45:29;;;;;;;0.00;0.00;;;;;;;18.36;100.00;101190.31;5103102;28;20099;-47
2023/09/29 06:47:55;;;;;;;0.00;0.00;;;;;;;18.36;100.00;101201.22;5104685;28;20104;-43
2023/09/29 06:50:20;;;;;;;0.00;0.00;;;;;;;18.33;100.00;101196.22;5105135;27;20397;-46
2023/09/29 06:52:45;;;;;;;0.00;0.00;;;;;;;18.31;100.00;101191.00;5100450;27;20054;-45
2023/09/29 06:55:13;;;;;;;0.00;0.00;;;;;;;18.33;100.00;101190.78;5102898;27;20074;-47
2023/09/29 06:57:38;;;;;;;0.00;0.00;;;;;;;18.32;100.00;101194.53;5106452;28;20031;-44
2023/09/29 07:00:08;;;;;;;0.00;0.00;;;;;;;18.33;100.00;101201.69;5105283;28;20610;-43
2023/09/29 07:02:34;;;;;;;0.55;0.00;;;;;;;18.36;100.00;101212.13;5097662;28;20040;-45
2023/09/29 07:04:59;;;;;;;0.00;0.00;;;;;;;18.38;100.00;101204.56;5109159;28;20050;-45
2023/09/29 07:07:25;;;;;;;0.00;0.00;;;;;;;18.43;100.00;101208.28;5108817;28;20028;-47
2023/09/29 07:09:50;;;;;;;0.00;0.00;;;;;;;18.48;100.00;101212.19;5110218;28;20028;-43
2023/09/29 07:12:15;;;;;;;0.00;0.00;;;;;;;18.42;100.00;101211.22;5108722;28;20051;-44
2023/09/29 07:14:41;;;;;;;0.00;0.00;;;;;;;18.43;100.00;101210.13;5107368;28;20058;-45
2023/09/29 07:17:07;;;;;;;0.00;0.00;;;;;;;18.40;100.00;101224.22;5106779;28;20039;-45
2023/09/29 07:19:32;;;;;;;0.00;0.00;;;;;;;18.42;100.00;101227.56;5105952;28;20712;-47
2023/09/29 07:21:58;;;;;;;0.00;0.00;;;;;;;18.34;100.00;101230.56;5106618;28;20027;-44
2023/09/29 07:24:23;;;;;;;0.00;0.00;;;;;;;18.24;100.00;101239.25;5107151;28;20023;-50
2023/09/29 07:26:48;;;;;;;0.00;0.00;;;;;;;18.25;100.00;101243.66;5106682;28;20039;-47
2023/09/29 07:29:13;;;;;;;0.00;0.00;;;;;;;18.23;100.00;101244.94;5106505;28;20045;-44
2023/09/29 07:31:46;;;;;;;0.00;0.00;;;;;;;18.20;100.00;101255.22;5107690;28;20043;-45
2023/09/29 07:34:12;;;;;;;0.00;0.00;;;;;;;18.24;100.00;101257.50;5107165;28;20035;-48
2023/09/29 07:36:39;;;;;;;0.00;0.00;;;;;;;18.19;100.00;101258.16;5107106;28;20092;-46
2023/09/29 07:39:04;;;;;;;0.00;0.00;;;;;;;18.21;100.00;101269.66;5106922;28;20605;-45
2023/09/29 07:41:30;;;;;;;0.00;0.00;;;;;;;18.20;100.00;101266.13;5107121;27;20027;-46
2023/09/29 07:43:56;;;;;;;0.00;0.00;;;;;;;18.21;100.00;101265.03;5106636;28;20081;-44
2023/09/29 07:46:22;;;;;;;0.00;0.00;;;;;;;18.28;100.00;101264.19;5106689;28;20114;-44
2023/09/29 07:48:47;;;;;;;0.00;0.00;;;;;;;18.25;100.00;101270.91;5106573;28;20393;-47
2023/09/29 07:51:13;;;;;;;0.00;0.00;;;;;;;18.21;100.00;101270.50;5106761;28;20035;-44
2023/09/29 07:53:38;;;;;;;0.00;0.00;;;;;;;18.20;100.00;101274.28;5107146;28;20020;-46
2023/09/29 07:56:04;;;;;;;0.00;0.00;;;;;;;18.25;100.00;101281.81;5106136;28;20038;-45
2023/09/29 07:58:29;;;;;;;0.00;0.00;;;;;;;18.34;100.00;101285.06;5105954;28;20475;-45
2023/09/29 08:00:54;;;;;;;0.00;0.00;;;;;;;18.38;100.00;101275.41;5105690;28;20051;-45
2023/09/29 08:03:20;;;;;;;0.00;0.00;;;;;;;18.55;100.00;101273.75;5105931;28;20024;-45
2023/09/29 08:05:45;;;;;;;0.00;0.00;;;;;;;18.90;100.00;101266.94;5106483;28;20030;-45
2023/09/29 08:08:11;;;;;;;0.00;0.00;;;;;;;19.30;100.00;101273.59;5106697;28;20110;-46
2023/09/29 08:10:36;;;;;;;0.00;0.00;;;;;;;19.40;100.00;101266.75;5105286;28;20046;-45
2023/09/29 08:13:01;;;;;;;0.00;0.00;;;;;;;19.40;100.00;101262.13;5101009;28;20402;-43
2023/09/29 08:15:27;;;;;;;0.00;0.00;;;;;;;19.46;100.00;101260.41;5106031;28;20043;-45
2023/09/29 08:17:52;;;;;;;0.00;0.00;;;;;;;19.50;100.00;101254.22;5104951;28;20047;-43
2023/09/29 08:20:20;;;;;;;0.00;0.00;;;;;;;19.59;100.00;101262.06;5100160;28;20027;-47
2023/09/29 08:22:45;;;;;;;0.00;0.00;;;;;;;19.73;100.00;101248.03;5106339;28;20028;-47
2023/09/29 08:25:11;;;;;;;0.00;0.00;;;;;;;19.74;100.00;101262.53;5105784;28;20039;-47
2023/09/29 08:27:37;;;;;;;0.00;0.00;;;;;;;19.49;100.00;101258.03;5104564;28;20390;-49
2023/09/29 08:30:04;;;;;;;0.00;0.00;;;;;;;19.43;100.00;101271.75;5101801;27;20089;-45
2023/09/29 08:32:30;;;;;;;0.00;0.00;;;;;;;19.37;100.00;101264.50;5099412;27;20031;-46
2023/09/29 08:34:55;;;;;;;0.00;0.00;;;;;;;19.32;100.00;101272.53;5091144;28;20035;-46
2023/09/29 08:37:21;;;;;;;0.00;0.00;;;;;;;19.34;100.00;101271.25;5104116;28;20074;-45
2023/09/29 08:39:46;;;;;;;0.00;0.00;;;;;;;19.30;100.00;101268.16;5100859;28;20474;-45
2023/09/29 08:42:21;;;;;;;0.00;0.00;;;;;;;19.31;100.00;101290.81;5096523;28;20039;-45
2023/09/29 08:44:49;;;;;;;0.00;0.00;;;;;;;19.21;100.00;101285.88;5100341;28;20035;-44
2023/09/29 08:47:16;;;;;;;0.00;0.00;;;;;;;19.10;100.00;101294.84;5101383;28;20075;-43
2023/09/29 08:49:41;;;;;;;0.00;0.00;;;;;;;19.06;100.00;101308.09;5100058;28;20027;-44
2023/09/29 08:52:09;;;;;;;0.00;0.00;;;;;;;18.95;100.00;101317.03;5101163;28;20074;-45
2023/09/29 08:54:34;;;;;;;0.00;0.00;;;;;;;18.91;100.00;101324.00;5102352;28;20404;-47
2023/09/29 08:57:00;;;;;;;0.00;0.00;;;;;;;18.79;100.00;101326.63;5103708;28;20088;-47
2023/09/29 08:59:28;;;;;;;0.00;0.00;;;;;;;18.70;100.00;101335.31;5102323;28;20385;-44
2023/09/29 09:01:55;;;;;;;0.00;0.00;;;;;;;18.67;100.00;101341.19;5096618;28;20111;-45
2023/09/29 09:04:20;;;;;;;0.00;0.00;;;;;;;18.65;100.00;101344.16;5103974;28;20081;-41
2023/09/29 09:06:47;;;;;;;0.00;0.00;;;;;;;18.59;100.00;101345.03;5102083;28;20028;-43
2023/09/29 09:09:13;;;;;;;0.00;0.00;;;;;;;18.68;100.00;101351.03;5108793;28;20108;-45
2023/09/29 09:11:42;;;;;;;0.00;0.00;;;;;;;18.68;100.00;101346.41;5107797;28;21887;-43
2023/09/29 09:14:10;;;;;;;0.00;0.00;;;;;;;18.75;100.00;101352.69;5099764;28;20035;-44
2023/09/29 09:16:40;;;;;;;0.00;0.00;;;;;;;18.74;100.00;101355.59;5098690;28;20031;-46
2023/09/29 09:19:12;;;;;;;0.00;0.00;;;;;;;18.79;100.00;101356.63;5105645;28;20390;-44
2023/09/29 09:21:38;;;;;;;0.00;0.00;;;;;;;18.77;100.00;101357.91;5106446;28;20040;-46
2023/09/29 09:24:20;;;;;;;0.00;0.00;;;;;;;18.72;100.00;101368.59;5105004;28;20088;-43
2023/09/29 09:26:46;;;;;;;0.00;0.00;;;;;;;18.70;100.00;101378.94;5103268;28;20451;-44
2023/09/29 09:29:16;;;;;;;0.00;0.00;;;;;;;18.65;100.00;101380.41;5105671;28;20114;-47
2023/09/29 09:31:47;;;;;;;0.00;0.00;;;;;;;18.55;100.00;101385.53;5106960;28;20417;-49
2023/09/29 09:34:13;;;;;;;0.00;0.00;;;;;;;18.61;100.00;101391.97;5108427;28;20102;-46
2023/09/29 09:36:49;;;;;;;0.00;0.00;;;;;;;18.53;100.00;101386.81;5107513;28;20122;-44
2023/09/29 09:39:15;;;;;;;0.00;0.00;;;;;;;18.68;100.00;101400.13;5106735;28;20038;-44
2023/09/29 09:41:41;;;;;;;0.00;0.00;;;;;;;18.50;100.00;101392.69;5101837;27;20039;-47
2023/09/29 09:44:07;;;;;;;0.00;0.00;;;;;;;18.53;100.00;101409.44;5104950;27;20050;-43
2023/09/29 09:46:33;;;;;;;0.00;0.00;;;;;;;18.47;100.00;101437.59;5104216;28;20032;-43
2023/09/29 09:49:09;;;;;;;0.00;0.00;;;;;;;18.51;100.00;101449.75;5104799;28;20023;-43
2023/09/29 09:51:36;;;;;;;0.00;0.00;;;;;;;18.42;100.00;101451.03;5102809;28;20135;-42
2023/09/29 09:54:09;;;;;;;0.00;0.00;;;;;;;18.36;100.00;101446.47;5102755;28;21205;-47
2023/09/29 09:57:08;;;;;;;0.00;0.00;;;;;;;18.31;100.00;101449.84;5104446;27;20522;-47
2023/09/29 09:59:35;;;;;;;0.00;0.00;;;;;;;18.29;100.00;101459.28;5104390;27;20439;-46
2023/09/29 10:02:00;;;;;;;0.00;0.00;;;;;;;18.23;100.00;101466.44;5103958;27;20040;-44
2023/09/29 10:04:28;;;;;;;0.00;0.00;;;;;;;18.17;100.00;101470.88;5106045;28;20031;-49
2023/09/29 10:06:55;;;;;;;0.00;0.00;;;;;;;18.11;100.00;101471.72;5105640;28;20028;-44
2023/09/29 10:09:21;;;;;;;0.00;0.00;;;;;;;18.13;100.00;101491.44;5102585;27;20090;-42
2023/09/29 10:11:59;;;;;;;0.00;0.00;;;;;;;18.08;100.00;101487.69;5102119;27;20470;-46
2023/09/29 10:14:25;;;;;;;0.00;0.00;;;;;;;18.06;100.00;101485.19;5107423;28;20030;-44
2023/09/29 10:17:03;;;;;;;0.00;0.00;;;;;;;18.05;100.00;101490.84;5107525;28;20024;-43
2023/09/29 10:19:37;;;;;;;0.00;0.00;;;;;;;18.03;100.00;101493.78;5104491;28;20118;-43
2023/09/29 10:22:03;;;;;;;0.00;0.00;;;;;;;18.10;100.00;101504.66;5095518;28;20032;-43
2023/09/29 10:24:28;;;;;;;0.00;0.00;;;;;;;18.09;100.00;101516.59;5107228;28;20028;-44
2023/09/29 10:26:55;;;;;;;0.00;0.00;;;;;;;18.08;100.00;101521.19;5106245;28;20478;-42
2023/09/29 10:29:25;;;;;;;0.00;0.00;;;;;;;18.10;100.00;101527.28;5104785;28;20123;-44
2023/09/29 10:31:52;;;;;;;0.00;0.00;;;;;;;18.08;100.00;101537.53;5112404;28;20473;-45
2023/09/29 10:34:22;;;;;;;0.00;0.00;;;;;;;18.05;100.00;101532.53;5103910;28;20019;-43
2023/09/29 10:36:55;;;;;;;0.00;0.00;;;;;;;18.04;100.00;101536.31;5103794;28;20486;-45
2023/09/29 10:39:27;;;;;;;0.00;0.00;;;;;;;18.04;100.00;101536.31;5093242;28;20032;-43
2023/09/29 10:42:10;;;;;;;0.00;0.00;;;;;;;18.03;100.00;101539.25;5100094;27;20375;-44
2023/09/29 10:44:43;;;;;;;0.00;0.00;;;;;;;17.95;100.00;101532.13;5103463;28;20432;-43
2023/09/29 10:47:09;;;;;;;0.00;0.00;;;;;;;17.92;100.00;101543.47;5098422;28;20103;-41
2023/09/29 10:49:35;;;;;;;0.00;0.00;;;;;;;17.96;100.00;101555.63;5111135;28;20533;-43
2023/09/29 10:52:00;;;;;;;0.00;0.00;;;;;;;17.93;100.00;101551.44;5100111;28;20488;-43
2023/09/29 10:54:26;;;;;;;0.00;0.00;;;;;;;17.91;100.00;101552.69;5104959;28;20019;-41
2023/09/29 10:56:51;;;;;;;0.00;0.00;;;;;;;17.96;100.00;101548.28;5110783;27;20073;-42
2023/09/29 10:59:17;;;;;;;0.00;0.00;;;;;;;18.02;100.00;101549.31;5098238;28;20027;-44
2023/09/29 11:01:44;;;;;;;0.00;0.00;;;;;;;18.09;100.00;101555.59;5107684;27;20020;-43
2023/09/29 11:04:10;;;;;;;0.00;0.00;;;;;;;18.19;100.00;101561.41;5092760;28;20035;-43
2023/09/29 11:06:49;;;;;;;0.00;0.00;;;;;;;18.43;100.00;101567.16;5110740;28;20038;-44
2023/09/29 11:09:28;;;;;;;0.00;0.00;;;;;;;18.56;100.00;101566.28;5111199;28;20032;-45
2023/09/29 11:11:53;;;;;;;0.00;0.00;;;;;;;18.70;100.00;101577.97;5108301;28;20127;-41
2023/09/29 11:14:19;;;;;;;0.00;0.00;;;;;;;18.69;100.00;101581.72;5091099;28;20534;-44